sensor_id;sensor_type;location;lat;lon;timestamp;P1;durP1;ratioP1;P2;durP2;ratioP2
36585;SDS011;22591;48.314;11.562;2024-01-16T00:01:56;4.53;;;4.13;;
36585;SDS011;22591;48.314;11.562;2024-01-16T00:04:22;4.15;;;3.63;;
36585;SDS011;22591;48.314;11.562;2024-01-16T00:06:47;3.38;;;3.17;;
36585;SDS011;22591;48.314;11.562;2024-01-16T00:09:13;3.60;;;3.40;;
36585;SDS011;22591;48.314;11.562;2024-01-16T00:11:42;3.22;;;2.97;;
36585;SDS011;22591;48.314;11.562;2024-01-16T00:14:08;4.70;;;3.70;;
36585;SDS011;22591;48.314;11.562;2024-01-16T00:16:41;3.90;;;3.60;;
36585;SDS011;22591;48.314;11.562;2024-01-16T00:19:11;3.78;;;3.42;;
36585;SDS011;22591;48.314;11.562;2024-01-16T00:21:40;3.30;;;3.00;;
36585;SDS011;22591;48.314;11.562;2024-01-16T00:24:12;3.85;;;3.45;;
36585;SDS011;22591;48.314;11.562;2024-01-16T00:26:38;3.28;;;3.08;;
36585;SDS011;22591;48.314;11.562;2024-01-16T00:29:04;3.63;;;3.33;;
36585;SDS011;22591;48.314;11.562;2024-01-16T00:31:30;3.42;;;3.17;;
36585;SDS011;22591;48.314;11.562;2024-01-16T00:33:55;3.53;;;3.00;;
36585;SDS011;22591;48.314;11.562;2024-01-16T00:36:21;2.95;;;2.75;;
36585;SDS011;22591;48.314;11.562;2024-01-16T00:38:46;3.67;;;3.38;;
36585;SDS011;22591;48.314;11.562;2024-01-16T00:41:12;3.53;;;3.28;;
36585;SDS011;22591;48.314;11.562;2024-01-16T00:43:41;3.38;;;3.10;;
36585;SDS011;22591;48.314;11.562;2024-01-16T00:46:08;3.85;;;3.35;;
36585;SDS011;22591;48.314;11.562;2024-01-16T00:48:33;2.97;;;2.78;;
36585;SDS011;22591;48.314;11.562;2024-01-16T00:50:59;3.13;;;2.85;;
36585;SDS011;22591;48.314;11.562;2024-01-16T00:53:26;3.65;;;3.35;;
36585;SDS011;22591;48.314;11.562;2024-01-16T00:55:51;4.40;;;3.88;;
36585;SDS011;22591;48.314;11.562;2024-01-16T00:58:19;3.60;;;3.30;;
36585;SDS011;22591;48.314;11.562;2024-01-16T01:00:45;3.80;;;3.50;;
36585;SDS011;22591;48.314;11.562;2024-01-16T01:03:10;3.92;;;3.22;;
36585;SDS011;22591;48.314;11.562;2024-01-16T01:05:36;5.07;;;3.55;;
36585;SDS011;22591;48.314;11.562;2024-01-16T01:08:02;4.03;;;3.53;;
36585;SDS011;22591;48.314;11.562;2024-01-16T01:10:27;3.70;;;3.40;;
36585;SDS011;22591;48.314;11.562;2024-01-16T01:12:53;4.05;;;3.67;;
36585;SDS011;22591;48.314;11.562;2024-01-16T01:15:19;3.67;;;3.47;;
36585;SDS011;22591;48.314;11.562;2024-01-16T01:17:47;3.33;;;3.03;;
36585;SDS011;22591;48.314;11.562;2024-01-16T01:20:14;3.53;;;3.25;;
36585;SDS011;22591;48.314;11.562;2024-01-16T01:22:40;3.45;;;3.20;;
36585;SDS011;22591;48.314;11.562;2024-01-16T01:25:05;3.65;;;3.35;;
36585;SDS011;22591;48.314;11.562;2024-01-16T01:27:32;4.00;;;3.70;;
36585;SDS011;22591;48.314;11.562;2024-01-16T01:29:57;7.10;;;3.08;;
36585;SDS011;22591;48.314;11.562;2024-01-16T01:32:23;3.80;;;3.53;;
36585;SDS011;22591;48.314;11.562;2024-01-16T01:34:49;6.80;;;3.53;;
36585;SDS011;22591;48.314;11.562;2024-01-16T01:37:14;5.25;;;3.55;;
36585;SDS011;22591;48.314;11.562;2024-01-16T01:39:40;4.35;;;3.95;;
36585;SDS011;22591;48.314;11.562;2024-01-16T01:42:06;4.40;;;4.00;;
36585;SDS011;22591;48.314;11.562;2024-01-16T01:44:32;4.30;;;4.00;;
36585;SDS011;22591;48.314;11.562;2024-01-16T01:46:58;4.05;;;3.75;;
36585;SDS011;22591;48.314;11.562;2024-01-16T01:49:24;3.87;;;3.57;;
36585;SDS011;22591;48.314;11.562;2024-01-16T01:51:51;3.63;;;3.43;;
36585;SDS011;22591;48.314;11.562;2024-01-16T01:54:17;4.60;;;3.28;;
36585;SDS011;22591;48.314;11.562;2024-01-16T01:56:44;6.77;;;3.73;;
36585;SDS011;22591;48.314;11.562;2024-01-16T01:59:11;4.07;;;3.33;;
36585;SDS011;22591;48.314;11.562;2024-01-16T02:01:38;4.20;;;3.90;;
36585;SDS011;22591;48.314;11.562;2024-01-16T02:04:04;3.47;;;3.27;;
36585;SDS011;22591;48.314;11.562;2024-01-16T02:06:31;4.07;;;3.37;;
36585;SDS011;22591;48.314;11.562;2024-01-16T02:08:57;5.60;;;3.70;;
36585;SDS011;22591;48.314;11.562;2024-01-16T02:11:24;3.80;;;3.50;;
36585;SDS011;22591;48.314;11.562;2024-01-16T02:13:50;3.90;;;3.60;;
36585;SDS011;22591;48.314;11.562;2024-01-16T02:16:19;5.73;;;3.40;;
36585;SDS011;22591;48.314;11.562;2024-01-16T02:18:45;3.97;;;3.67;;
36585;SDS011;22591;48.314;11.562;2024-01-16T02:21:11;5.00;;;4.00;;
36585;SDS011;22591;48.314;11.562;2024-01-16T02:23:38;3.67;;;3.37;;
36585;SDS011;22591;48.314;11.562;2024-01-16T02:26:04;3.63;;;3.33;;
36585;SDS011;22591;48.314;11.562;2024-01-16T02:28:29;3.93;;;3.17;;
36585;SDS011;22591;48.314;11.562;2024-01-16T02:30:55;3.93;;;3.63;;
36585;SDS011;22591;48.314;11.562;2024-01-16T02:33:21;3.83;;;3.60;;
36585;SDS011;22591;48.314;11.562;2024-01-16T02:35:47;4.10;;;3.50;;
36585;SDS011;22591;48.314;11.562;2024-01-16T02:38:12;4.17;;;3.70;;
36585;SDS011;22591;48.314;11.562;2024-01-16T02:40:38;4.13;;;3.83;;
36585;SDS011;22591;48.314;11.562;2024-01-16T02:43:03;3.97;;;3.67;;
36585;SDS011;22591;48.314;11.562;2024-01-16T02:45:29;4.77;;;4.07;;
36585;SDS011;22591;48.314;11.562;2024-01-16T02:47:54;4.20;;;3.80;;
36585;SDS011;22591;48.314;11.562;2024-01-16T02:50:20;6.17;;;3.60;;
36585;SDS011;22591;48.314;11.562;2024-01-16T02:52:46;5.07;;;3.73;;
36585;SDS011;22591;48.314;11.562;2024-01-16T02:55:11;3.97;;;3.57;;
36585;SDS011;22591;48.314;11.562;2024-01-16T02:57:37;4.07;;;3.83;;
36585;SDS011;22591;48.314;11.562;2024-01-16T03:00:02;3.73;;;3.53;;
36585;SDS011;22591;48.314;11.562;2024-01-16T03:02:28;4.53;;;4.03;;
36585;SDS011;22591;48.314;11.562;2024-01-16T03:04:54;4.13;;;3.70;;
36585;SDS011;22591;48.314;11.562;2024-01-16T03:07:20;3.80;;;3.50;;
36585;SDS011;22591;48.314;11.562;2024-01-16T03:09:46;4.20;;;3.63;;
36585;SDS011;22591;48.314;11.562;2024-01-16T03:12:11;4.17;;;3.63;;
36585;SDS011;22591;48.314;11.562;2024-01-16T03:14:37;4.47;;;3.73;;
36585;SDS011;22591;48.314;11.562;2024-01-16T03:17:04;3.63;;;3.30;;
36585;SDS011;22591;48.314;11.562;2024-01-16T03:19:29;3.90;;;2.97;;
36585;SDS011;22591;48.314;11.562;2024-01-16T03:21:55;4.00;;;3.67;;
36585;SDS011;22591;48.314;11.562;2024-01-16T03:24:21;3.80;;;3.50;;
36585;SDS011;22591;48.314;11.562;2024-01-16T03:26:47;5.60;;;3.30;;
36585;SDS011;22591;48.314;11.562;2024-01-16T03:29:13;3.90;;;3.60;;
36585;SDS011;22591;48.314;11.562;2024-01-16T03:31:38;4.10;;;3.57;;
36585;SDS011;22591;48.314;11.562;2024-01-16T03:34:04;5.20;;;3.20;;
36585;SDS011;22591;48.314;11.562;2024-01-16T03:36:29;4.00;;;3.80;;
36585;SDS011;22591;48.314;11.562;2024-01-16T03:38:55;4.90;;;3.97;;
36585;SDS011;22591;48.314;11.562;2024-01-16T03:41:20;4.03;;;3.33;;
36585;SDS011;22591;48.314;11.562;2024-01-16T03:43:46;6.27;;;3.67;;
36585;SDS011;22591;48.314;11.562;2024-01-16T03:46:11;4.33;;;3.93;;
36585;SDS011;22591;48.314;11.562;2024-01-16T03:48:37;3.57;;;3.30;;
36585;SDS011;22591;48.314;11.562;2024-01-16T03:51:03;6.77;;;3.63;;
36585;SDS011;22591;48.314;11.562;2024-01-16T03:53:28;4.67;;;3.37;;
36585;SDS011;22591;48.314;11.562;2024-01-16T03:55:54;4.33;;;4.03;;
36585;SDS011;22591;48.314;11.562;2024-01-16T03:58:20;5.90;;;3.53;;
36585;SDS011;22591;48.314;11.562;2024-01-16T04:00:45;3.90;;;3.60;;
36585;SDS011;22591;48.314;11.562;2024-01-16T04:03:11;4.60;;;4.07;;
36585;SDS011;22591;48.314;11.562;2024-01-16T04:05:38;3.50;;;3.20;;
36585;SDS011;22591;48.314;11.562;2024-01-16T04:08:03;3.70;;;3.40;;
36585;SDS011;22591;48.314;11.562;2024-01-16T04:10:29;3.90;;;3.60;;
36585;SDS011;22591;48.314;11.562;2024-01-16T04:12:55;4.20;;;3.90;;
36585;SDS011;22591;48.314;11.562;2024-01-16T04:15:20;4.00;;;3.53;;
36585;SDS011;22591;48.314;11.562;2024-01-16T04:17:46;4.50;;;4.10;;
36585;SDS011;22591;48.314;11.562;2024-01-16T04:20:11;4.70;;;4.07;;
36585;SDS011;22591;48.314;11.562;2024-01-16T04:22:37;3.70;;;3.40;;
36585;SDS011;22591;48.314;11.562;2024-01-16T04:25:03;4.73;;;3.60;;
36585;SDS011;22591;48.314;11.562;2024-01-16T04:27:30;4.27;;;3.80;;
36585;SDS011;22591;48.314;11.562;2024-01-16T04:29:56;3.60;;;3.30;;
36585;SDS011;22591;48.314;11.562;2024-01-16T04:32:22;4.03;;;3.73;;
36585;SDS011;22591;48.314;11.562;2024-01-16T04:34:47;3.70;;;3.40;;
36585;SDS011;22591;48.314;11.562;2024-01-16T04:37:13;3.90;;;3.50;;
36585;SDS011;22591;48.314;11.562;2024-01-16T04:39:38;3.83;;;3.53;;
36585;SDS011;22591;48.314;11.562;2024-01-16T04:42:04;4.07;;;3.40;;
36585;SDS011;22591;48.314;11.562;2024-01-16T04:44:29;3.73;;;3.43;;
36585;SDS011;22591;48.314;11.562;2024-01-16T04:46:55;3.97;;;3.67;;
36585;SDS011;22591;48.314;11.562;2024-01-16T04:49:20;4.60;;;4.13;;
36585;SDS011;22591;48.314;11.562;2024-01-16T04:51:46;4.17;;;3.77;;
36585;SDS011;22591;48.314;11.562;2024-01-16T04:54:12;3.40;;;3.10;;
36585;SDS011;22591;48.314;11.562;2024-01-16T04:56:38;3.43;;;3.23;;
36585;SDS011;22591;48.314;11.562;2024-01-16T04:59:03;4.57;;;3.80;;
36585;SDS011;22591;48.314;11.562;2024-01-16T05:01:29;4.40;;;3.60;;
36585;SDS011;22591;48.314;11.562;2024-01-16T05:03:54;4.93;;;4.33;;
36585;SDS011;22591;48.314;11.562;2024-01-16T05:06:20;3.83;;;3.53;;
36585;SDS011;22591;48.314;11.562;2024-01-16T05:08:46;4.33;;;3.93;;
36585;SDS011;22591;48.314;11.562;2024-01-16T05:11:12;4.60;;;4.20;;
36585;SDS011;22591;48.314;11.562;2024-01-16T05:13:38;3.90;;;3.60;;
36585;SDS011;22591;48.314;11.562;2024-01-16T05:16:03;5.23;;;4.17;;
36585;SDS011;22591;48.314;11.562;2024-01-16T05:18:29;4.13;;;3.73;;
36585;SDS011;22591;48.314;11.562;2024-01-16T05:20:54;3.93;;;3.63;;
36585;SDS011;22591;48.314;11.562;2024-01-16T05:23:21;5.07;;;3.93;;
36585;SDS011;22591;48.314;11.562;2024-01-16T05:25:47;4.50;;;4.20;;
36585;SDS011;22591;48.314;11.562;2024-01-16T05:28:12;4.67;;;4.30;;
36585;SDS011;22591;48.314;11.562;2024-01-16T05:30:38;8.00;;;3.97;;
36585;SDS011;22591;48.314;11.562;2024-01-16T05:33:03;4.13;;;3.83;;
36585;SDS011;22591;48.314;11.562;2024-01-16T05:35:29;4.00;;;3.63;;
36585;SDS011;22591;48.314;11.562;2024-01-16T05:37:55;4.97;;;3.80;;
36585;SDS011;22591;48.314;11.562;2024-01-16T05:40:21;4.13;;;3.73;;
36585;SDS011;22591;48.314;11.562;2024-01-16T05:42:48;4.23;;;3.83;;
36585;SDS011;22591;48.314;11.562;2024-01-16T05:45:14;4.07;;;3.70;;
36585;SDS011;22591;48.314;11.562;2024-01-16T05:47:39;4.97;;;4.00;;
36585;SDS011;22591;48.314;11.562;2024-01-16T05:50:05;5.37;;;4.87;;
36585;SDS011;22591;48.314;11.562;2024-01-16T05:52:31;4.37;;;3.67;;
36585;SDS011;22591;48.314;11.562;2024-01-16T05:54:57;4.30;;;3.50;;
36585;SDS011;22591;48.314;11.562;2024-01-16T05:57:24;4.17;;;3.77;;
36585;SDS011;22591;48.314;11.562;2024-01-16T05:59:50;4.97;;;3.63;;
36585;SDS011;22591;48.314;11.562;2024-01-16T06:02:15;4.30;;;3.90;;
36585;SDS011;22591;48.314;11.562;2024-01-16T06:04:41;4.37;;;3.57;;
36585;SDS011;22591;48.314;11.562;2024-01-16T06:07:06;3.87;;;3.43;;
36585;SDS011;22591;48.314;11.562;2024-01-16T06:09:32;4.90;;;4.33;;
36585;SDS011;22591;48.314;11.562;2024-01-16T06:11:58;5.27;;;4.57;;
36585;SDS011;22591;48.314;11.562;2024-01-16T06:14:24;4.43;;;4.03;;
36585;SDS011;22591;48.314;11.562;2024-01-16T06:16:50;5.10;;;4.70;;
36585;SDS011;22591;48.314;11.562;2024-01-16T06:19:16;7.07;;;4.00;;
36585;SDS011;22591;48.314;11.562;2024-01-16T06:21:41;5.10;;;3.70;;
36585;SDS011;22591;48.314;11.562;2024-01-16T06:24:07;4.53;;;4.10;;
36585;SDS011;22591;48.314;11.562;2024-01-16T06:26:33;4.90;;;4.40;;
36585;SDS011;22591;48.314;11.562;2024-01-16T06:28:58;4.67;;;3.60;;
36585;SDS011;22591;48.314;11.562;2024-01-16T06:31:24;4.83;;;4.30;;
36585;SDS011;22591;48.314;11.562;2024-01-16T06:33:51;4.30;;;4.00;;
36585;SDS011;22591;48.314;11.562;2024-01-16T06:36:17;4.80;;;4.40;;
36585;SDS011;22591;48.314;11.562;2024-01-16T06:38:42;4.33;;;4.00;;
36585;SDS011;22591;48.314;11.562;2024-01-16T06:41:08;4.63;;;4.20;;
36585;SDS011;22591;48.314;11.562;2024-01-16T06:43:34;5.07;;;4.00;;
36585;SDS011;22591;48.314;11.562;2024-01-16T06:45:59;4.67;;;4.27;;
36585;SDS011;22591;48.314;11.562;2024-01-16T06:48:25;12.43;;;4.13;;
36585;SDS011;22591;48.314;11.562;2024-01-16T06:50:51;4.37;;;4.07;;
36585;SDS011;22591;48.314;11.562;2024-01-16T06:53:17;4.70;;;4.30;;
36585;SDS011;22591;48.314;11.562;2024-01-16T06:55:42;4.47;;;4.17;;
36585;SDS011;22591;48.314;11.562;2024-01-16T06:58:08;7.80;;;4.67;;
36585;SDS011;22591;48.314;11.562;2024-01-16T07:00:35;5.00;;;4.60;;
36585;SDS011;22591;48.314;11.562;2024-01-16T07:03:00;4.83;;;4.33;;
36585;SDS011;22591;48.314;11.562;2024-01-16T07:05:27;5.17;;;4.77;;
36585;SDS011;22591;48.314;11.562;2024-01-16T07:07:54;9.63;;;5.33;;
36585;SDS011;22591;48.314;11.562;2024-01-16T07:10:20;5.10;;;4.60;;
36585;SDS011;22591;48.314;11.562;2024-01-16T07:12:47;6.40;;;4.87;;
36585;SDS011;22591;48.314;11.562;2024-01-16T07:15:14;6.80;;;5.33;;
36585;SDS011;22591;48.314;11.562;2024-01-16T07:17:40;5.13;;;4.50;;
36585;SDS011;22591;48.314;11.562;2024-01-16T07:20:05;6.60;;;4.60;;
36585;SDS011;22591;48.314;11.562;2024-01-16T07:22:32;4.63;;;4.23;;
36585;SDS011;22591;48.314;11.562;2024-01-16T07:24:59;5.00;;;4.70;;
36585;SDS011;22591;48.314;11.562;2024-01-16T07:27:25;6.70;;;5.10;;
36585;SDS011;22591;48.314;11.562;2024-01-16T07:29:51;5.53;;;5.03;;
36585;SDS011;22591;48.314;11.562;2024-01-16T07:32:16;5.30;;;4.80;;
36585;SDS011;22591;48.314;11.562;2024-01-16T07:34:42;5.50;;;4.97;;
36585;SDS011;22591;48.314;11.562;2024-01-16T07:37:08;5.60;;;5.10;;
36585;SDS011;22591;48.314;11.562;2024-01-16T07:39:33;5.43;;;4.80;;
36585;SDS011;22591;48.314;11.562;2024-01-16T07:41:59;6.67;;;5.30;;
36585;SDS011;22591;48.314;11.562;2024-01-16T07:44:25;7.80;;;5.07;;
36585;SDS011;22591;48.314;11.562;2024-01-16T07:46:51;6.77;;;4.77;;
36585;SDS011;22591;48.314;11.562;2024-01-16T07:49:16;5.57;;;5.07;;
36585;SDS011;22591;48.314;11.562;2024-01-16T07:51:42;9.07;;;4.60;;
36585;SDS011;22591;48.314;11.562;2024-01-16T07:54:08;5.43;;;4.80;;
36585;SDS011;22591;48.314;11.562;2024-01-16T07:56:37;4.80;;;4.40;;
36585;SDS011;22591;48.314;11.562;2024-01-16T07:59:03;8.50;;;4.90;;
36585;SDS011;22591;48.314;11.562;2024-01-16T08:01:29;6.50;;;5.27;;
36585;SDS011;22591;48.314;11.562;2024-01-16T08:03:55;5.33;;;4.77;;
36585;SDS011;22591;48.314;11.562;2024-01-16T08:06:21;4.70;;;4.33;;
36585;SDS011;22591;48.314;11.562;2024-01-16T08:08:47;5.73;;;4.67;;
36585;SDS011;22591;48.314;11.562;2024-01-16T08:11:13;5.43;;;4.90;;
36585;SDS011;22591;48.314;11.562;2024-01-16T08:13:39;4.60;;;4.20;;
36585;SDS011;22591;48.314;11.562;2024-01-16T08:16:05;4.43;;;4.13;;
36585;SDS011;22591;48.314;11.562;2024-01-16T08:18:30;5.97;;;4.57;;
36585;SDS011;22591;48.314;11.562;2024-01-16T08:20:56;4.87;;;4.43;;
36585;SDS011;22591;48.314;11.562;2024-01-16T08:23:22;6.57;;;4.60;;
36585;SDS011;22591;48.314;11.562;2024-01-16T08:25:48;7.17;;;4.63;;
36585;SDS011;22591;48.314;11.562;2024-01-16T08:28:14;4.47;;;3.90;;
36585;SDS011;22591;48.314;11.562;2024-01-16T08:30:40;5.17;;;4.70;;
36585;SDS011;22591;48.314;11.562;2024-01-16T08:33:05;5.13;;;4.70;;
36585;SDS011;22591;48.314;11.562;2024-01-16T08:35:31;5.50;;;5.00;;
36585;SDS011;22591;48.314;11.562;2024-01-16T08:37:56;4.93;;;4.50;;
36585;SDS011;22591;48.314;11.562;2024-01-16T08:40:22;5.27;;;4.77;;
36585;SDS011;22591;48.314;11.562;2024-01-16T08:42:47;5.33;;;4.93;;
36585;SDS011;22591;48.314;11.562;2024-01-16T08:45:17;5.15;;;4.65;;
36585;SDS011;22591;48.314;11.562;2024-01-16T08:47:43;5.50;;;5.00;;
36585;SDS011;22591;48.314;11.562;2024-01-16T08:50:08;5.13;;;4.68;;
36585;SDS011;22591;48.314;11.562;2024-01-16T08:52:34;7.15;;;5.63;;
36585;SDS011;22591;48.314;11.562;2024-01-16T08:55:00;5.40;;;4.90;;
36585;SDS011;22591;48.314;11.562;2024-01-16T08:57:26;5.53;;;4.70;;
36585;SDS011;22591;48.314;11.562;2024-01-16T08:59:52;5.53;;;4.95;;
36585;SDS011;22591;48.314;11.562;2024-01-16T09:02:18;8.07;;;4.97;;
36585;SDS011;22591;48.314;11.562;2024-01-16T09:04:43;5.75;;;5.13;;
36585;SDS011;22591;48.314;11.562;2024-01-16T09:07:10;6.57;;;4.82;;
36585;SDS011;22591;48.314;11.562;2024-01-16T09:09:36;7.72;;;4.60;;
36585;SDS011;22591;48.314;11.562;2024-01-16T09:12:01;6.20;;;5.30;;
36585;SDS011;22591;48.314;11.562;2024-01-16T09:14:28;6.00;;;5.38;;
36585;SDS011;22591;48.314;11.562;2024-01-16T09:16:54;5.90;;;5.38;;
36585;SDS011;22591;48.314;11.562;2024-01-16T09:19:19;7.38;;;5.68;;
36585;SDS011;22591;48.314;11.562;2024-01-16T09:21:45;6.72;;;6.05;;
36585;SDS011;22591;48.314;11.562;2024-01-16T09:24:10;7.88;;;6.22;;
36585;SDS011;22591;48.314;11.562;2024-01-16T09:26:37;6.43;;;5.80;;
36585;SDS011;22591;48.314;11.562;2024-01-16T09:29:03;6.20;;;4.97;;
36585;SDS011;22591;48.314;11.562;2024-01-16T09:31:28;5.80;;;5.30;;
36585;SDS011;22591;48.314;11.562;2024-01-16T09:33:54;6.68;;;5.63;;
36585;SDS011;22591;48.314;11.562;2024-01-16T09:36:19;7.47;;;6.45;;
36585;SDS011;22591;48.314;11.562;2024-01-16T09:38:45;6.35;;;5.65;;
36585;SDS011;22591;48.314;11.562;2024-01-16T09:41:10;6.72;;;6.03;;
36585;SDS011;22591;48.314;11.562;2024-01-16T09:43:36;8.25;;;5.38;;
36585;SDS011;22591;48.314;11.562;2024-01-16T09:46:02;5.35;;;4.85;;
36585;SDS011;22591;48.314;11.562;2024-01-16T09:48:30;6.60;;;4.90;;
36585;SDS011;22591;48.314;11.562;2024-01-16T09:50:56;5.25;;;4.85;;
36585;SDS011;22591;48.314;11.562;2024-01-16T09:53:22;4.90;;;4.45;;
36585;SDS011;22591;48.314;11.562;2024-01-16T09:55:49;5.70;;;5.10;;
36585;SDS011;22591;48.314;11.562;2024-01-16T09:58:15;5.53;;;5.03;;
36585;SDS011;22591;48.314;11.562;2024-01-16T10:00:45;5.22;;;4.72;;
36585;SDS011;22591;48.314;11.562;2024-01-16T10:03:12;6.93;;;4.75;;
36585;SDS011;22591;48.314;11.562;2024-01-16T10:05:39;6.65;;;4.93;;
36585;SDS011;22591;48.314;11.562;2024-01-16T10:08:07;5.10;;;4.70;;
36585;SDS011;22591;48.314;11.562;2024-01-16T10:10:33;6.85;;;4.75;;
36585;SDS011;22591;48.314;11.562;2024-01-16T10:12:59;6.65;;;4.97;;
36585;SDS011;22591;48.314;11.562;2024-01-16T10:15:25;5.32;;;4.82;;
36585;SDS011;22591;48.314;11.562;2024-01-16T10:17:50;6.15;;;5.65;;
36585;SDS011;22591;48.314;11.562;2024-01-16T10:20:18;5.93;;;4.45;;
36585;SDS011;22591;48.314;11.562;2024-01-16T10:22:57;5.93;;;4.95;;
36585;SDS011;22591;48.314;11.562;2024-01-16T10:25:23;5.35;;;4.85;;
36585;SDS011;22591;48.314;11.562;2024-01-16T10:27:49;5.30;;;4.90;;
36585;SDS011;22591;48.314;11.562;2024-01-16T10:30:28;6.45;;;5.07;;
36585;SDS011;22591;48.314;11.562;2024-01-16T10:32:54;5.13;;;4.65;;
36585;SDS011;22591;48.314;11.562;2024-01-16T10:35:20;7.82;;;5.43;;
36585;SDS011;22591;48.314;11.562;2024-01-16T10:37:49;6.82;;;4.97;;
36585;SDS011;22591;48.314;11.562;2024-01-16T10:42:43;5.75;;;4.70;;
36585;SDS011;22591;48.314;11.562;2024-01-16T10:45:16;5.30;;;4.88;;
36585;SDS011;22591;48.314;11.562;2024-01-16T10:47:43;5.53;;;4.85;;
36585;SDS011;22591;48.314;11.562;2024-01-16T10:50:09;6.55;;;5.25;;
36585;SDS011;22591;48.314;11.562;2024-01-16T10:52:35;5.18;;;4.75;;
36585;SDS011;22591;48.314;11.562;2024-01-16T10:55:06;6.82;;;5.18;;
36585;SDS011;22591;48.314;11.562;2024-01-16T10:57:34;7.07;;;4.28;;
36585;SDS011;22591;48.314;11.562;2024-01-16T11:00:05;5.07;;;4.60;;
36585;SDS011;22591;48.314;11.562;2024-01-16T11:02:43;6.70;;;5.05;;
36585;SDS011;22591;48.314;11.562;2024-01-16T11:05:13;8.05;;;5.10;;
36585;SDS011;22591;48.314;11.562;2024-01-16T11:07:41;7.88;;;5.88;;
36585;SDS011;22591;48.314;11.562;2024-01-16T11:10:09;7.82;;;5.35;;
36585;SDS011;22591;48.314;11.562;2024-01-16T11:12:35;6.05;;;5.45;;
36585;SDS011;22591;48.314;11.562;2024-01-16T11:15:04;5.18;;;4.78;;
36585;SDS011;22591;48.314;11.562;2024-01-16T11:17:32;5.20;;;4.70;;
36585;SDS011;22591;48.314;11.562;2024-01-16T11:20:00;6.60;;;4.57;;
36585;SDS011;22591;48.314;11.562;2024-01-16T11:22:30;5.55;;;5.05;;
36585;SDS011;22591;48.314;11.562;2024-01-16T11:27:35;4.25;;;3.83;;
36585;SDS011;22591;48.314;11.562;2024-01-16T11:30:02;5.93;;;4.85;;
36585;SDS011;22591;48.314;11.562;2024-01-16T11:32:36;4.20;;;3.85;;
36585;SDS011;22591;48.314;11.562;2024-01-16T11:35:03;5.82;;;4.70;;
36585;SDS011;22591;48.314;11.562;2024-01-16T11:37:30;9.38;;;4.43;;
36585;SDS011;22591;48.314;11.562;2024-01-16T11:42:42;5.32;;;4.30;;
36585;SDS011;22591;48.314;11.562;2024-01-16T11:45:08;4.90;;;4.13;;
36585;SDS011;22591;48.314;11.562;2024-01-16T11:48:08;4.30;;;3.67;;
36585;SDS011;22591;48.314;11.562;2024-01-16T11:50:40;11.07;;;3.78;;
36585;SDS011;22591;48.314;11.562;2024-01-16T11:53:06;4.78;;;4.13;;
36585;SDS011;22591;48.314;11.562;2024-01-16T11:55:33;4.55;;;4.15;;
36585;SDS011;22591;48.314;11.562;2024-01-16T12:00:43;6.88;;;3.60;;
36585;SDS011;22591;48.314;11.562;2024-01-16T12:03:10;6.07;;;3.70;;
36585;SDS011;22591;48.314;11.562;2024-01-16T12:05:41;6.40;;;3.80;;
36585;SDS011;22591;48.314;11.562;2024-01-16T12:08:08;4.43;;;3.28;;
36585;SDS011;22591;48.314;11.562;2024-01-16T12:10:37;5.18;;;3.53;;
36585;SDS011;22591;48.314;11.562;2024-01-16T12:13:12;6.10;;;3.60;;
36585;SDS011;22591;48.314;11.562;2024-01-16T12:15:37;4.03;;;3.42;;
36585;SDS011;22591;48.314;11.562;2024-01-16T12:18:03;4.03;;;3.63;;
36585;SDS011;22591;48.314;11.562;2024-01-16T12:20:32;3.83;;;3.13;;
36585;SDS011;22591;48.314;11.562;2024-01-16T12:25:25;5.15;;;3.78;;
36585;SDS011;22591;48.314;11.562;2024-01-16T12:28:03;4.35;;;3.70;;
36585;SDS011;22591;48.314;11.562;2024-01-16T12:30:30;5.10;;;3.72;;
36585;SDS011;22591;48.314;11.562;2024-01-16T12:35:31;4.18;;;3.70;;
36585;SDS011;22591;48.314;11.562;2024-01-16T12:38:03;6.47;;;4.13;;
36585;SDS011;22591;48.314;11.562;2024-01-16T12:40:34;3.72;;;3.42;;
36585;SDS011;22591;48.314;11.562;2024-01-16T12:43:01;4.63;;;3.92;;
36585;SDS011;22591;48.314;11.562;2024-01-16T12:45:30;3.78;;;3.35;;
36585;SDS011;22591;48.314;11.562;2024-01-16T12:47:57;3.55;;;3.35;;
36585;SDS011;22591;48.314;11.562;2024-01-16T12:50:25;3.53;;;3.22;;
36585;SDS011;22591;48.314;11.562;2024-01-16T12:53:01;3.10;;;2.80;;
36585;SDS011;22591;48.314;11.562;2024-01-16T12:55:28;3.80;;;3.35;;
36585;SDS011;22591;48.314;11.562;2024-01-16T13:00:39;4.20;;;2.50;;
36585;SDS011;22591;48.314;11.562;2024-01-16T13:03:07;3.83;;;2.85;;
36585;SDS011;22591;48.314;11.562;2024-01-16T13:08:04;3.92;;;3.53;;
36585;SDS011;22591;48.314;11.562;2024-01-16T13:10:30;4.38;;;3.60;;
36585;SDS011;22591;48.314;11.562;2024-01-16T13:15:38;3.55;;;3.25;;
36585;SDS011;22591;48.314;11.562;2024-01-16T13:18:04;4.50;;;3.67;;
36585;SDS011;22591;48.314;11.562;2024-01-16T13:20:30;5.30;;;3.42;;
36585;SDS011;22591;48.314;11.562;2024-01-16T13:22:56;3.72;;;3.13;;
36585;SDS011;22591;48.314;11.562;2024-01-16T13:25:21;4.75;;;3.10;;
36585;SDS011;22591;48.314;11.562;2024-01-16T13:27:47;3.70;;;2.97;;
36585;SDS011;22591;48.314;11.562;2024-01-16T13:30:13;4.90;;;3.00;;
36585;SDS011;22591;48.314;11.562;2024-01-16T13:32:39;3.47;;;3.17;;
36585;SDS011;22591;48.314;11.562;2024-01-16T13:35:05;3.38;;;2.90;;
36585;SDS011;22591;48.314;11.562;2024-01-16T13:37:34;3.88;;;2.65;;
36585;SDS011;22591;48.314;11.562;2024-01-16T13:40:03;6.93;;;2.88;;
36585;SDS011;22591;48.314;11.562;2024-01-16T13:42:33;3.50;;;2.53;;
36585;SDS011;22591;48.314;11.562;2024-01-16T13:45:00;2.40;;;1.92;;
36585;SDS011;22591;48.314;11.562;2024-01-16T13:47:25;2.88;;;2.20;;
36585;SDS011;22591;48.314;11.562;2024-01-16T13:49:51;5.05;;;2.42;;
36585;SDS011;22591;48.314;11.562;2024-01-16T13:52:17;3.08;;;2.22;;
36585;SDS011;22591;48.314;11.562;2024-01-16T13:54:42;2.80;;;2.47;;
36585;SDS011;22591;48.314;11.562;2024-01-16T13:57:08;2.83;;;2.47;;
36585;SDS011;22591;48.314;11.562;2024-01-16T13:59:34;2.88;;;2.00;;
36585;SDS011;22591;48.314;11.562;2024-01-16T14:02:04;2.15;;;1.95;;
36585;SDS011;22591;48.314;11.562;2024-01-16T14:04:33;5.05;;;2.05;;
36585;SDS011;22591;48.314;11.562;2024-01-16T14:06:59;4.07;;;2.30;;
36585;SDS011;22591;48.314;11.562;2024-01-16T14:09:26;2.70;;;2.50;;
36585;SDS011;22591;48.314;11.562;2024-01-16T14:11:52;5.82;;;2.35;;
36585;SDS011;22591;48.314;11.562;2024-01-16T14:14:17;3.42;;;2.53;;
36585;SDS011;22591;48.314;11.562;2024-01-16T14:16:43;2.58;;;2.00;;
36585;SDS011;22591;48.314;11.562;2024-01-16T14:19:09;3.83;;;2.05;;
36585;SDS011;22591;48.314;11.562;2024-01-16T14:21:34;2.55;;;2.00;;
36585;SDS011;22591;48.314;11.562;2024-01-16T14:24:00;4.63;;;2.45;;
36585;SDS011;22591;48.314;11.562;2024-01-16T14:26:25;2.72;;;1.98;;
36585;SDS011;22591;48.314;11.562;2024-01-16T14:28:51;3.47;;;2.53;;
36585;SDS011;22591;48.314;11.562;2024-01-16T14:31:16;2.38;;;1.85;;
36585;SDS011;22591;48.314;11.562;2024-01-16T14:33:42;2.88;;;2.13;;
36585;SDS011;22591;48.314;11.562;2024-01-16T14:36:07;5.43;;;2.45;;
36585;SDS011;22591;48.314;11.562;2024-01-16T14:38:33;2.80;;;2.10;;
36585;SDS011;22591;48.314;11.562;2024-01-16T14:40:58;2.28;;;2.08;;
36585;SDS011;22591;48.314;11.562;2024-01-16T14:43:24;3.95;;;2.00;;
36585;SDS011;22591;48.314;11.562;2024-01-16T14:45:50;4.95;;;2.80;;
36585;SDS011;22591;48.314;11.562;2024-01-16T14:48:16;2.97;;;2.13;;
36585;SDS011;22591;48.314;11.562;2024-01-16T14:50:41;5.75;;;2.58;;
36585;SDS011;22591;48.314;11.562;2024-01-16T14:53:08;2.15;;;2.05;;